Airfield :
LOGIN :

Register | Disclaimer

   EN    FR    IT 

 










Legend :    VFR   Marginal VFR   IFR   Intensive IFR   Very Intensive IFR
Visi :
Ceiling :
>= 8 km
>= 3000ft
5 to 8 km
1000 to 3000 ft
1500m to 5 km
500 to 1000 ft
800 to 1500m
200 to 500 ft
< 800m
< 200 ft
Symbols :   Thunderstorms  Fog  Heavy snow  Heavy precipitations  Wind > 20 kt
SIGMETs :     Misc.  Thunderstorms  Icing  Turbulence  Mountain Waves  Volcanic Ashes






- Airport Elevation : 610 ft
- IATA code : VXO


ESMX - Växjö Kronoberg

CURRENT METAR :
  • 171320Z 22018G32KT 9999 BKN021 BKN029 BKN038 06/03 Q0997

EXPIRED METARs :
  • 171250Z 22021G34KT 7000 -RA BKN019 BKN027 OVC034 05/03 Q0997 RESHRA
  • 171220Z 22019KT 9999 -SHRA BKN021 BKN031 06/03 Q0996 RESHRA
  • 171150Z 23020G37KT 200V260 9999 BKN023 BKN032 06/02 Q0996
  • 171120Z 22019G32KT 9999 SCT026 BKN037 BKN062 06/02 Q0996 RESHRA
  • 171050Z 22018G28KT 9999 SCT025 BKN040 BKN055 05/03 Q0996

TAF TAF ESMX
Valid from the 17 at 12:00 until the 17 at 21:00 UTC


171130Z 1712/1721 22018G32KT 9999 BKN030
PROB40 1712/1721 4000 RA BKN020CB



MET'MAP, your aeronautical weather chart ! - Copyright ORBIFLY December 2007 - Disclaimer

ORBIFLY MET'MAP TEAM :

Programming & Development : Alexandra Zaïnal
Concept & original design : Baudouin d'Aumeries
Assistance for programming : Marc-Olivier Méhu
Technical & hardware support : Manuel Goepfert

Contact : metmap@orbifly.com




SOURCES & CREDITS :

   NOAA